Turtletown, Tennessee
Current Conditions -  °F | °C
As of 6:15 PM on Saturday 27 Dec 2014 (Local Time) from KMMI Reporting Station
Overcast Overcast  
Wind Chill: 50°   Ceiling: 5000
Heat Index: 50°   Visibility: 10mi
Dew Point: 43°   Wind: 0mph
Humidity: 76%   Direction: NA
Pressure: 30.2"   Gusts: NA
Location:  35.13°N, 84.35°W
Report Text: KMMI 272315Z AUTO 00000KT 10SM SCT044 BKN050 OVC080 10/06 A3020 RMK
Loading
Personal Weather Stations






























Interactive Weather Map New forecast layout! Learn more

10-Day Weather Forecast

Advertisements
Track Severe Weather on mobile